Pinehurst, Oregon
Current Conditions -  °F | °C
As of 12:53 AM on Monday 22 Dec 2014 (Local Time) from KSIY Reporting Station
Clear Clear  
Wind Chill: 11°   Ceiling: Unl
Heat Index: 11°   Visibility: 10mi
Dew Point:   Wind: 7mph
Humidity: 80%   Direction: NA
Pressure: 30.26"   Gusts: NA
Location:  42.11°N, 122.38°W
Report Text: KSIY 220853Z AUTO VRB06KT 10SM CLR 11/07 A3026 RMK AO2 SLP254 T01060072 58003
Loading
Personal Weather Stations






























Interactive Weather Map New forecast layout! Learn more

10-Day Weather Forecast

Advertisements
Track Severe Weather on mobile